Terminal Aerodrome Forecast
Issued by NWS Lubbock, TX

Home | Current Version | Previous Version | Text Only | Print | Product List | Glossary On
Versions: 1 2 3 4 5 6 7 8 9 10 11 12 13 14 15 16 17 18 19 20 21 22 23 24 25 26
000
FTUS44 KLUB 230315 AAC
TAFLBB
TAF AMD
KLBB 230315Z 2303/2324 13010KT 1/4SM FG OVC002
     FM230900 16010KT 3SM TSRA BKN004 OVC015CB
     FM231500 17015KT P6SM SCT010 BKN035=

USA.gov is the U.S. government's official web portal to all federal, state and local government web resources and services.